sensor_id;sensor_type;location;lat;lon;timestamp;P1;durP1;ratioP1;P2;durP2;ratioP2
49296;SDS011;35163;48.878;18.040;2024-03-06T00:02:07;29.63;;;15.43;;
49296;SDS011;35163;48.878;18.040;2024-03-06T00:04:34;31.52;;;17.15;;
49296;SDS011;35163;48.878;18.040;2024-03-06T00:07:01;32.78;;;16.48;;
49296;SDS011;35163;48.878;18.040;2024-03-06T00:09:28;28.95;;;16.65;;
49296;SDS011;35163;48.878;18.040;2024-03-06T00:11:54;28.83;;;16.08;;
49296;SDS011;35163;48.878;18.040;2024-03-06T00:14:22;29.70;;;15.48;;
49296;SDS011;35163;48.878;18.040;2024-03-06T00:16:49;32.03;;;16.77;;
49296;SDS011;35163;48.878;18.040;2024-03-06T00:19:17;27.52;;;15.85;;
49296;SDS011;35163;48.878;18.040;2024-03-06T00:21:44;29.70;;;16.55;;
49296;SDS011;35163;48.878;18.040;2024-03-06T00:24:11;31.85;;;16.20;;
49296;SDS011;35163;48.878;18.040;2024-03-06T00:26:42;28.77;;;15.48;;
49296;SDS011;35163;48.878;18.040;2024-03-06T00:29:10;27.95;;;15.23;;
49296;SDS011;35163;48.878;18.040;2024-03-06T00:31:46;34.67;;;16.10;;
49296;SDS011;35163;48.878;18.040;2024-03-06T00:34:13;33.47;;;15.93;;
49296;SDS011;35163;48.878;18.040;2024-03-06T00:36:40;34.22;;;17.48;;
49296;SDS011;35163;48.878;18.040;2024-03-06T00:39:07;30.45;;;16.17;;
49296;SDS011;35163;48.878;18.040;2024-03-06T00:41:34;30.92;;;15.85;;
49296;SDS011;35163;48.878;18.040;2024-03-06T00:44:01;30.88;;;16.95;;
49296;SDS011;35163;48.878;18.040;2024-03-06T00:46:28;31.05;;;16.50;;
49296;SDS011;35163;48.878;18.040;2024-03-06T00:48:55;34.80;;;17.05;;
49296;SDS011;35163;48.878;18.040;2024-03-06T00:51:23;35.08;;;17.33;;
49296;SDS011;35163;48.878;18.040;2024-03-06T00:54:06;32.38;;;15.85;;
49296;SDS011;35163;48.878;18.040;2024-03-06T00:56:33;30.80;;;16.98;;
49296;SDS011;35163;48.878;18.040;2024-03-06T00:59:03;28.88;;;16.58;;
49296;SDS011;35163;48.878;18.040;2024-03-06T01:01:30;32.28;;;17.10;;
49296;SDS011;35163;48.878;18.040;2024-03-06T01:03:57;31.17;;;17.25;;
49296;SDS011;35163;48.878;18.040;2024-03-06T01:06:24;31.73;;;16.52;;
49296;SDS011;35163;48.878;18.040;2024-03-06T01:08:50;29.52;;;16.23;;
49296;SDS011;35163;48.878;18.040;2024-03-06T01:11:17;30.48;;;15.57;;
49296;SDS011;35163;48.878;18.040;2024-03-06T01:13:43;31.88;;;16.83;;
49296;SDS011;35163;48.878;18.040;2024-03-06T01:16:10;35.85;;;16.75;;
49296;SDS011;35163;48.878;18.040;2024-03-06T01:18:36;29.23;;;17.02;;
49296;SDS011;35163;48.878;18.040;2024-03-06T01:21:03;33.70;;;17.88;;
49296;SDS011;35163;48.878;18.040;2024-03-06T01:23:30;32.83;;;17.85;;
49296;SDS011;35163;48.878;18.040;2024-03-06T01:25:56;30.92;;;16.92;;
49296;SDS011;35163;48.878;18.040;2024-03-06T01:28:23;31.33;;;16.75;;
49296;SDS011;35163;48.878;18.040;2024-03-06T01:30:49;32.30;;;17.15;;
49296;SDS011;35163;48.878;18.040;2024-03-06T01:33:16;31.27;;;17.38;;
49296;SDS011;35163;48.878;18.040;2024-03-06T01:35:43;33.70;;;17.55;;
49296;SDS011;35163;48.878;18.040;2024-03-06T01:38:09;31.60;;;17.02;;
49296;SDS011;35163;48.878;18.040;2024-03-06T01:40:36;29.58;;;16.33;;
49296;SDS011;35163;48.878;18.040;2024-03-06T01:43:03;34.88;;;19.85;;
49296;SDS011;35163;48.878;18.040;2024-03-06T01:45:31;32.95;;;16.98;;
49296;SDS011;35163;48.878;18.040;2024-03-06T01:47:58;31.05;;;16.75;;
49296;SDS011;35163;48.878;18.040;2024-03-06T01:50:25;34.25;;;17.65;;
49296;SDS011;35163;48.878;18.040;2024-03-06T01:52:53;33.42;;;17.58;;
49296;SDS011;35163;48.878;18.040;2024-03-06T01:55:19;30.73;;;16.80;;
49296;SDS011;35163;48.878;18.040;2024-03-06T01:57:46;32.50;;;16.25;;
49296;SDS011;35163;48.878;18.040;2024-03-06T02:00:13;31.45;;;16.52;;
49296;SDS011;35163;48.878;18.040;2024-03-06T02:02:41;32.53;;;16.55;;
49296;SDS011;35163;48.878;18.040;2024-03-06T02:05:09;36.03;;;17.88;;
49296;SDS011;35163;48.878;18.040;2024-03-06T02:07:36;33.08;;;16.63;;
49296;SDS011;35163;48.878;18.040;2024-03-06T02:10:06;31.35;;;17.05;;
49296;SDS011;35163;48.878;18.040;2024-03-06T02:12:36;33.65;;;16.60;;
49296;SDS011;35163;48.878;18.040;2024-03-06T02:15:03;33.53;;;17.85;;
49296;SDS011;35163;48.878;18.040;2024-03-06T02:17:30;36.00;;;17.65;;
49296;SDS011;35163;48.878;18.040;2024-03-06T02:19:59;32.05;;;16.33;;
49296;SDS011;35163;48.878;18.040;2024-03-06T02:22:25;34.28;;;16.85;;
49296;SDS011;35163;48.878;18.040;2024-03-06T02:24:52;33.33;;;18.02;;
49296;SDS011;35163;48.878;18.040;2024-03-06T02:27:19;30.85;;;17.35;;
49296;SDS011;35163;48.878;18.040;2024-03-06T02:29:45;35.80;;;17.23;;
49296;SDS011;35163;48.878;18.040;2024-03-06T02:32:12;31.60;;;17.73;;
49296;SDS011;35163;48.878;18.040;2024-03-06T02:34:40;37.00;;;18.27;;
49296;SDS011;35163;48.878;18.040;2024-03-06T02:37:07;34.17;;;17.95;;
49296;SDS011;35163;48.878;18.040;2024-03-06T02:39:34;30.27;;;17.42;;
49296;SDS011;35163;48.878;18.040;2024-03-06T02:42:00;37.47;;;18.40;;
49296;SDS011;35163;48.878;18.040;2024-03-06T02:44:27;32.33;;;16.95;;
49296;SDS011;35163;48.878;18.040;2024-03-06T02:46:54;30.77;;;17.25;;
49296;SDS011;35163;48.878;18.040;2024-03-06T02:49:21;31.23;;;17.15;;
49296;SDS011;35163;48.878;18.040;2024-03-06T02:51:47;34.72;;;19.42;;
49296;SDS011;35163;48.878;18.040;2024-03-06T02:54:14;33.15;;;18.48;;
49296;SDS011;35163;48.878;18.040;2024-03-06T02:56:41;34.30;;;18.45;;
49296;SDS011;35163;48.878;18.040;2024-03-06T02:59:07;31.45;;;18.58;;
49296;SDS011;35163;48.878;18.040;2024-03-06T03:01:34;33.45;;;17.95;;
49296;SDS011;35163;48.878;18.040;2024-03-06T03:04:01;37.22;;;18.98;;
49296;SDS011;35163;48.878;18.040;2024-03-06T03:06:28;35.88;;;19.77;;
49296;SDS011;35163;48.878;18.040;2024-03-06T03:08:55;35.95;;;19.80;;
49296;SDS011;35163;48.878;18.040;2024-03-06T03:11:22;38.30;;;19.70;;
49296;SDS011;35163;48.878;18.040;2024-03-06T03:13:49;38.03;;;19.30;;
49296;SDS011;35163;48.878;18.040;2024-03-06T03:16:18;35.15;;;19.65;;
49296;SDS011;35163;48.878;18.040;2024-03-06T03:18:46;33.80;;;18.85;;
49296;SDS011;35163;48.878;18.040;2024-03-06T03:21:16;35.25;;;19.05;;
49296;SDS011;35163;48.878;18.040;2024-03-06T03:23:43;37.60;;;18.35;;
49296;SDS011;35163;48.878;18.040;2024-03-06T03:26:10;34.58;;;18.65;;
49296;SDS011;35163;48.878;18.040;2024-03-06T03:28:37;35.40;;;18.67;;
49296;SDS011;35163;48.878;18.040;2024-03-06T03:31:09;38.80;;;20.35;;
49296;SDS011;35163;48.878;18.040;2024-03-06T03:33:40;35.50;;;19.52;;
49296;SDS011;35163;48.878;18.040;2024-03-06T03:36:07;39.97;;;20.73;;
49296;SDS011;35163;48.878;18.040;2024-03-06T03:38:35;40.70;;;20.17;;
49296;SDS011;35163;48.878;18.040;2024-03-06T03:41:11;41.08;;;19.17;;
49296;SDS011;35163;48.878;18.040;2024-03-06T03:43:39;37.00;;;19.27;;
49296;SDS011;35163;48.878;18.040;2024-03-06T03:46:06;35.38;;;19.30;;
49296;SDS011;35163;48.878;18.040;2024-03-06T03:48:33;39.63;;;19.20;;
49296;SDS011;35163;48.878;18.040;2024-03-06T03:51:03;38.67;;;20.55;;
49296;SDS011;35163;48.878;18.040;2024-03-06T03:53:31;37.50;;;20.25;;
49296;SDS011;35163;48.878;18.040;2024-03-06T03:55:58;39.65;;;19.98;;
49296;SDS011;35163;48.878;18.040;2024-03-06T03:58:25;39.13;;;20.10;;
49296;SDS011;35163;48.878;18.040;2024-03-06T04:00:51;36.63;;;19.63;;
49296;SDS011;35163;48.878;18.040;2024-03-06T04:03:22;41.83;;;20.58;;
49296;SDS011;35163;48.878;18.040;2024-03-06T04:05:50;37.70;;;20.50;;
49296;SDS011;35163;48.878;18.040;2024-03-06T04:08:16;36.53;;;19.90;;
49296;SDS011;35163;48.878;18.040;2024-03-06T04:10:43;41.63;;;21.65;;
49296;SDS011;35163;48.878;18.040;2024-03-06T04:13:14;40.88;;;20.65;;
49296;SDS011;35163;48.878;18.040;2024-03-06T04:15:43;42.17;;;21.02;;
49296;SDS011;35163;48.878;18.040;2024-03-06T04:18:09;38.58;;;21.67;;
49296;SDS011;35163;48.878;18.040;2024-03-06T04:20:36;38.05;;;19.88;;
49296;SDS011;35163;48.878;18.040;2024-03-06T04:23:02;37.65;;;20.67;;
49296;SDS011;35163;48.878;18.040;2024-03-06T04:25:29;41.70;;;21.40;;
49296;SDS011;35163;48.878;18.040;2024-03-06T04:27:56;37.53;;;19.45;;
49296;SDS011;35163;48.878;18.040;2024-03-06T04:30:23;37.13;;;20.50;;
49296;SDS011;35163;48.878;18.040;2024-03-06T04:32:49;38.28;;;20.42;;
49296;SDS011;35163;48.878;18.040;2024-03-06T04:35:16;39.90;;;21.15;;
49296;SDS011;35163;48.878;18.040;2024-03-06T04:37:43;42.08;;;21.63;;
49296;SDS011;35163;48.878;18.040;2024-03-06T04:40:10;40.28;;;20.75;;
49296;SDS011;35163;48.878;18.040;2024-03-06T04:42:38;38.13;;;20.40;;
49296;SDS011;35163;48.878;18.040;2024-03-06T04:45:10;37.60;;;20.42;;
49296;SDS011;35163;48.878;18.040;2024-03-06T04:47:38;37.40;;;19.97;;
49296;SDS011;35163;48.878;18.040;2024-03-06T04:50:08;47.15;;;20.58;;
49296;SDS011;35163;48.878;18.040;2024-03-06T04:52:39;41.65;;;19.77;;
49296;SDS011;35163;48.878;18.040;2024-03-06T04:55:06;38.50;;;20.38;;
49296;SDS011;35163;48.878;18.040;2024-03-06T04:57:34;41.25;;;20.42;;
49296;SDS011;35163;48.878;18.040;2024-03-06T05:00:01;42.33;;;20.00;;
49296;SDS011;35163;48.878;18.040;2024-03-06T05:02:32;39.03;;;20.70;;
49296;SDS011;35163;48.878;18.040;2024-03-06T05:05:17;39.63;;;18.67;;
49296;SDS011;35163;48.878;18.040;2024-03-06T05:08:01;40.97;;;20.13;;
49296;SDS011;35163;48.878;18.040;2024-03-06T05:10:45;37.92;;;20.17;;
49296;SDS011;35163;48.878;18.040;2024-03-06T05:13:30;36.72;;;18.85;;
49296;SDS011;35163;48.878;18.040;2024-03-06T05:16:14;42.95;;;20.33;;
49296;SDS011;35163;48.878;18.040;2024-03-06T05:18:58;37.92;;;20.52;;
49296;SDS011;35163;48.878;18.040;2024-03-06T05:21:42;36.75;;;19.88;;
49296;SDS011;35163;48.878;18.040;2024-03-06T05:24:26;38.15;;;20.25;;
49296;SDS011;35163;48.878;18.040;2024-03-06T05:27:10;38.33;;;20.88;;
49296;SDS011;35163;48.878;18.040;2024-03-06T05:29:56;36.42;;;19.23;;
49296;SDS011;35163;48.878;18.040;2024-03-06T05:32:40;37.95;;;19.65;;
49296;SDS011;35163;48.878;18.040;2024-03-06T05:35:25;39.28;;;19.77;;
49296;SDS011;35163;48.878;18.040;2024-03-06T05:38:09;37.67;;;19.70;;
49296;SDS011;35163;48.878;18.040;2024-03-06T05:40:53;40.80;;;19.55;;
49296;SDS011;35163;48.878;18.040;2024-03-06T05:43:37;39.38;;;20.52;;
49296;SDS011;35163;48.878;18.040;2024-03-06T05:46:22;37.10;;;20.02;;
49296;SDS011;35163;48.878;18.040;2024-03-06T05:49:06;42.08;;;20.70;;
49296;SDS011;35163;48.878;18.040;2024-03-06T05:51:49;36.25;;;19.75;;
49296;SDS011;35163;48.878;18.040;2024-03-06T05:54:34;36.38;;;20.48;;
49296;SDS011;35163;48.878;18.040;2024-03-06T05:57:19;33.53;;;17.73;;
49296;SDS011;35163;48.878;18.040;2024-03-06T06:00:03;37.17;;;20.23;;
49296;SDS011;35163;48.878;18.040;2024-03-06T06:02:37;42.30;;;21.02;;
49296;SDS011;35163;48.878;18.040;2024-03-06T06:05:04;37.85;;;20.17;;
49296;SDS011;35163;48.878;18.040;2024-03-06T06:07:48;43.47;;;21.30;;
49296;SDS011;35163;48.878;18.040;2024-03-06T06:10:16;35.25;;;18.77;;
49296;SDS011;35163;48.878;18.040;2024-03-06T06:12:47;38.03;;;21.60;;
49296;SDS011;35163;48.878;18.040;2024-03-06T06:15:13;42.45;;;20.17;;
49296;SDS011;35163;48.878;18.040;2024-03-06T06:17:40;40.15;;;20.45;;
49296;SDS011;35163;48.878;18.040;2024-03-06T06:20:09;39.90;;;19.45;;
49296;SDS011;35163;48.878;18.040;2024-03-06T06:22:41;38.22;;;20.10;;
49296;SDS011;35163;48.878;18.040;2024-03-06T06:25:08;37.92;;;20.40;;
49296;SDS011;35163;48.878;18.040;2024-03-06T06:27:36;35.97;;;19.30;;
49296;SDS011;35163;48.878;18.040;2024-03-06T06:30:03;36.70;;;19.48;;
49296;SDS011;35163;48.878;18.040;2024-03-06T06:32:33;35.85;;;19.38;;
49296;SDS011;35163;48.878;18.040;2024-03-06T06:35:01;40.25;;;19.85;;
49296;SDS011;35163;48.878;18.040;2024-03-06T06:37:28;40.35;;;21.15;;
49296;SDS011;35163;48.878;18.040;2024-03-06T06:39:54;38.55;;;18.50;;
49296;SDS011;35163;48.878;18.040;2024-03-06T06:42:21;36.00;;;19.55;;
49296;SDS011;35163;48.878;18.040;2024-03-06T06:44:48;35.03;;;19.00;;
49296;SDS011;35163;48.878;18.040;2024-03-06T06:47:15;37.35;;;20.33;;
49296;SDS011;35163;48.878;18.040;2024-03-06T06:49:41;40.85;;;20.60;;
49296;SDS011;35163;48.878;18.040;2024-03-06T06:52:08;39.40;;;20.17;;
49296;SDS011;35163;48.878;18.040;2024-03-06T06:54:34;38.63;;;19.45;;
49296;SDS011;35163;48.878;18.040;2024-03-06T06:57:01;40.35;;;21.20;;
49296;SDS011;35163;48.878;18.040;2024-03-06T06:59:29;42.22;;;21.25;;
49296;SDS011;35163;48.878;18.040;2024-03-06T07:01:56;35.78;;;19.00;;
49296;SDS011;35163;48.878;18.040;2024-03-06T07:04:23;42.65;;;21.55;;
49296;SDS011;35163;48.878;18.040;2024-03-06T07:06:50;38.65;;;20.42;;
49296;SDS011;35163;48.878;18.040;2024-03-06T07:09:17;40.22;;;20.65;;
49296;SDS011;35163;48.878;18.040;2024-03-06T07:11:44;40.03;;;20.73;;
49296;SDS011;35163;48.878;18.040;2024-03-06T07:14:12;43.53;;;19.63;;
49296;SDS011;35163;48.878;18.040;2024-03-06T07:16:45;40.47;;;20.50;;
49296;SDS011;35163;48.878;18.040;2024-03-06T07:19:11;36.22;;;20.05;;
49296;SDS011;35163;48.878;18.040;2024-03-06T07:21:39;42.30;;;20.30;;
49296;SDS011;35163;48.878;18.040;2024-03-06T07:24:05;41.78;;;19.27;;
49296;SDS011;35163;48.878;18.040;2024-03-06T07:26:33;35.08;;;19.63;;
49296;SDS011;35163;48.878;18.040;2024-03-06T07:29:00;41.75;;;20.17;;
49296;SDS011;35163;48.878;18.040;2024-03-06T07:31:27;35.67;;;20.50;;
49296;SDS011;35163;48.878;18.040;2024-03-06T07:33:54;36.70;;;19.83;;
49296;SDS011;35163;48.878;18.040;2024-03-06T07:36:21;35.85;;;19.50;;
49296;SDS011;35163;48.878;18.040;2024-03-06T07:38:48;40.95;;;20.10;;
49296;SDS011;35163;48.878;18.040;2024-03-06T07:41:14;36.20;;;19.65;;
49296;SDS011;35163;48.878;18.040;2024-03-06T07:43:41;38.83;;;19.52;;
49296;SDS011;35163;48.878;18.040;2024-03-06T07:46:08;36.53;;;20.42;;
49296;SDS011;35163;48.878;18.040;2024-03-06T07:48:37;36.22;;;19.10;;
49296;SDS011;35163;48.878;18.040;2024-03-06T07:51:05;32.92;;;17.27;;
49296;SDS011;35163;48.878;18.040;2024-03-06T07:53:31;33.88;;;17.88;;
49296;SDS011;35163;48.878;18.040;2024-03-06T07:55:58;31.17;;;17.50;;
49296;SDS011;35163;48.878;18.040;2024-03-06T07:58:25;34.67;;;18.88;;
49296;SDS011;35163;48.878;18.040;2024-03-06T08:00:51;37.13;;;18.42;;
49296;SDS011;35163;48.878;18.040;2024-03-06T08:03:22;35.85;;;17.58;;
49296;SDS011;35163;48.878;18.040;2024-03-06T08:05:52;36.00;;;18.52;;
49296;SDS011;35163;48.878;18.040;2024-03-06T08:08:19;37.72;;;16.48;;
49296;SDS011;35163;48.878;18.040;2024-03-06T08:10:47;31.20;;;16.73;;
49296;SDS011;35163;48.878;18.040;2024-03-06T08:13:14;31.60;;;16.90;;
49296;SDS011;35163;48.878;18.040;2024-03-06T08:15:40;29.88;;;16.48;;
49296;SDS011;35163;48.878;18.040;2024-03-06T08:18:10;32.28;;;17.20;;
49296;SDS011;35163;48.878;18.040;2024-03-06T08:20:37;32.90;;;17.85;;
49296;SDS011;35163;48.878;18.040;2024-03-06T08:23:04;30.75;;;16.90;;
49296;SDS011;35163;48.878;18.040;2024-03-06T08:25:30;38.00;;;16.77;;
49296;SDS011;35163;48.878;18.040;2024-03-06T08:27:59;27.13;;;15.27;;
49296;SDS011;35163;48.878;18.040;2024-03-06T08:30:25;30.05;;;16.95;;
49296;SDS011;35163;48.878;18.040;2024-03-06T08:32:52;29.45;;;16.08;;
49296;SDS011;35163;48.878;18.040;2024-03-06T08:35:19;33.40;;;17.02;;
49296;SDS011;35163;48.878;18.040;2024-03-06T08:37:47;28.67;;;14.85;;
49296;SDS011;35163;48.878;18.040;2024-03-06T08:40:14;29.35;;;16.25;;
49296;SDS011;35163;48.878;18.040;2024-03-06T08:42:41;28.27;;;14.90;;
49296;SDS011;35163;48.878;18.040;2024-03-06T08:45:09;32.85;;;15.48;;
49296;SDS011;35163;48.878;18.040;2024-03-06T08:47:37;29.23;;;15.95;;
49296;SDS011;35163;48.878;18.040;2024-03-06T08:50:04;31.88;;;16.42;;
49296;SDS011;35163;48.878;18.040;2024-03-06T08:52:31;34.90;;;15.63;;
49296;SDS011;35163;48.878;18.040;2024-03-06T08:54:58;28.42;;;16.00;;
49296;SDS011;35163;48.878;18.040;2024-03-06T08:57:25;29.95;;;15.38;;
49296;SDS011;35163;48.878;18.040;2024-03-06T08:59:54;27.85;;;15.57;;
49296;SDS011;35163;48.878;18.040;2024-03-06T09:02:21;25.00;;;14.48;;
49296;SDS011;35163;48.878;18.040;2024-03-06T09:04:48;29.40;;;15.18;;
49296;SDS011;35163;48.878;18.040;2024-03-06T09:07:18;28.83;;;14.80;;
49296;SDS011;35163;48.878;18.040;2024-03-06T09:09:45;28.15;;;16.48;;
49296;SDS011;35163;48.878;18.040;2024-03-06T09:12:12;26.83;;;14.82;;
49296;SDS011;35163;48.878;18.040;2024-03-06T09:14:39;26.58;;;14.80;;
49296;SDS011;35163;48.878;18.040;2024-03-06T09:17:07;28.33;;;15.50;;
49296;SDS011;35163;48.878;18.040;2024-03-06T09:19:36;28.92;;;15.90;;
49296;SDS011;35163;48.878;18.040;2024-03-06T09:22:06;29.65;;;15.43;;
49296;SDS011;35163;48.878;18.040;2024-03-06T09:24:33;27.73;;;15.43;;
49296;SDS011;35163;48.878;18.040;2024-03-06T09:27:01;31.63;;;15.55;;
49296;SDS011;35163;48.878;18.040;2024-03-06T09:29:28;27.95;;;15.35;;
49296;SDS011;35163;48.878;18.040;2024-03-06T09:31:55;27.67;;;15.02;;
49296;SDS011;35163;48.878;18.040;2024-03-06T09:34:21;29.20;;;15.43;;
49296;SDS011;35163;48.878;18.040;2024-03-06T09:36:49;26.13;;;14.15;;
49296;SDS011;35163;48.878;18.040;2024-03-06T09:39:17;31.00;;;14.77;;
49296;SDS011;35163;48.878;18.040;2024-03-06T09:41:51;28.77;;;15.00;;
49296;SDS011;35163;48.878;18.040;2024-03-06T09:44:22;29.73;;;13.90;;
49296;SDS011;35163;48.878;18.040;2024-03-06T09:46:49;30.15;;;13.77;;
49296;SDS011;35163;48.878;18.040;2024-03-06T09:49:17;25.70;;;13.63;;
49296;SDS011;35163;48.878;18.040;2024-03-06T09:51:45;27.00;;;14.07;;
49296;SDS011;35163;48.878;18.040;2024-03-06T09:54:16;26.88;;;14.60;;
49296;SDS011;35163;48.878;18.040;2024-03-06T09:56:48;31.85;;;14.15;;
49296;SDS011;35163;48.878;18.040;2024-03-06T09:59:15;24.42;;;12.52;;
49296;SDS011;35163;48.878;18.040;2024-03-06T10:01:45;28.08;;;14.13;;
49296;SDS011;35163;48.878;18.040;2024-03-06T10:06:48;24.83;;;13.93;;
49296;SDS011;35163;48.878;18.040;2024-03-06T10:09:19;27.50;;;12.77;;
49296;SDS011;35163;48.878;18.040;2024-03-06T10:11:45;26.02;;;12.98;;
49296;SDS011;35163;48.878;18.040;2024-03-06T10:14:12;27.40;;;12.70;;
49296;SDS011;35163;48.878;18.040;2024-03-06T10:16:55;29.15;;;13.63;;
49296;SDS011;35163;48.878;18.040;2024-03-06T10:19:23;22.92;;;12.68;;
49296;SDS011;35163;48.878;18.040;2024-03-06T10:21:51;27.73;;;14.13;;
49296;SDS011;35163;48.878;18.040;2024-03-06T10:24:18;25.10;;;12.30;;
49296;SDS011;35163;48.878;18.040;2024-03-06T10:26:50;29.38;;;13.13;;
49296;SDS011;35163;48.878;18.040;2024-03-06T10:29:21;26.38;;;12.82;;
49296;SDS011;35163;48.878;18.040;2024-03-06T10:31:49;24.17;;;12.55;;
49296;SDS011;35163;48.878;18.040;2024-03-06T10:34:17;24.60;;;12.32;;
49296;SDS011;35163;48.878;18.040;2024-03-06T10:36:48;30.05;;;13.27;;
49296;SDS011;35163;48.878;18.040;2024-03-06T10:39:23;25.77;;;13.15;;
49296;SDS011;35163;48.878;18.040;2024-03-06T10:41:54;27.55;;;13.05;;
49296;SDS011;35163;48.878;18.040;2024-03-06T10:44:26;31.98;;;12.85;;
49296;SDS011;35163;48.878;18.040;2024-03-06T10:47:03;26.55;;;13.15;;
49296;SDS011;35163;48.878;18.040;2024-03-06T10:49:32;25.58;;;12.85;;
49296;SDS011;35163;48.878;18.040;2024-03-06T10:52:01;25.48;;;12.82;;
49296;SDS011;35163;48.878;18.040;2024-03-06T10:54:32;24.15;;;13.55;;
49296;SDS011;35163;48.878;18.040;2024-03-06T10:57:01;26.58;;;13.82;;
49296;SDS011;35163;48.878;18.040;2024-03-06T10:59:28;23.83;;;12.35;;
49296;SDS011;35163;48.878;18.040;2024-03-06T11:01:56;23.27;;;12.48;;
49296;SDS011;35163;48.878;18.040;2024-03-06T11:04:29;26.73;;;12.98;;
49296;SDS011;35163;48.878;18.040;2024-03-06T11:07:01;26.75;;;12.55;;
49296;SDS011;35163;48.878;18.040;2024-03-06T11:09:35;20.70;;;11.55;;
49296;SDS011;35163;48.878;18.040;2024-03-06T11:12:04;24.48;;;13.85;;
49296;SDS011;35163;48.878;18.040;2024-03-06T11:14:37;23.17;;;12.55;;
49296;SDS011;35163;48.878;18.040;2024-03-06T11:17:09;23.13;;;12.10;;
49296;SDS011;35163;48.878;18.040;2024-03-06T11:28:28;22.90;;;12.57;;
49296;SDS011;35163;48.878;18.040;2024-03-06T11:31:00;23.73;;;13.23;;
49296;SDS011;35163;48.878;18.040;2024-03-06T11:33:34;19.80;;;11.68;;
49296;SDS011;35163;48.878;18.040;2024-03-06T11:36:14;25.10;;;13.13;;
49296;SDS011;35163;48.878;18.040;2024-03-06T11:39:07;22.42;;;12.57;;
49296;SDS011;35163;48.878;18.040;2024-03-06T11:44:02;21.17;;;12.18;;
49296;SDS011;35163;48.878;18.040;2024-03-06T11:46:42;22.92;;;12.45;;
49296;SDS011;35163;48.878;18.040;2024-03-06T11:49:18;24.23;;;12.73;;
49296;SDS011;35163;48.878;18.040;2024-03-06T11:51:51;23.75;;;12.05;;
49296;SDS011;35163;48.878;18.040;2024-03-06T11:54:22;26.45;;;13.48;;
49296;SDS011;35163;48.878;18.040;2024-03-06T11:56:54;24.77;;;12.68;;
49296;SDS011;35163;48.878;18.040;2024-03-06T12:01:50;21.42;;;11.50;;
49296;SDS011;35163;48.878;18.040;2024-03-06T12:04:18;26.10;;;12.35;;
49296;SDS011;35163;48.878;18.040;2024-03-06T12:06:46;22.75;;;12.35;;
49296;SDS011;35163;48.878;18.040;2024-03-06T12:09:14;25.35;;;13.07;;
49296;SDS011;35163;48.878;18.040;2024-03-06T12:11:41;23.75;;;12.02;;
49296;SDS011;35163;48.878;18.040;2024-03-06T12:14:16;24.55;;;12.05;;
49296;SDS011;35163;48.878;18.040;2024-03-06T12:16:56;20.55;;;10.65;;
49296;SDS011;35163;48.878;18.040;2024-03-06T12:19:27;22.65;;;12.27;;
49296;SDS011;35163;48.878;18.040;2024-03-06T12:21:58;23.52;;;11.50;;
49296;SDS011;35163;48.878;18.040;2024-03-06T12:24:30;22.35;;;12.07;;
49296;SDS011;35163;48.878;18.040;2024-03-06T12:27:03;23.38;;;12.18;;
49296;SDS011;35163;48.878;18.040;2024-03-06T12:29:31;24.45;;;12.15;;
49296;SDS011;35163;48.878;18.040;2024-03-06T12:31:59;21.60;;;11.65;;
49296;SDS011;35163;48.878;18.040;2024-03-06T12:34:32;26.13;;;11.82;;
49296;SDS011;35163;48.878;18.040;2024-03-06T12:37:11;21.25;;;11.30;;
49296;SDS011;35163;48.878;18.040;2024-03-06T12:39:38;29.30;;;12.98;;
49296;SDS011;35163;48.878;18.040;2024-03-06T12:42:09;27.23;;;12.82;;
49296;SDS011;35163;48.878;18.040;2024-03-06T12:44:35;24.25;;;12.05;;
49296;SDS011;35163;48.878;18.040;2024-03-06T12:47:02;22.25;;;11.52;;
49296;SDS011;35163;48.878;18.040;2024-03-06T12:49:29;23.27;;;11.55;;
49296;SDS011;35163;48.878;18.040;2024-03-06T12:51:55;24.80;;;13.02;;
49296;SDS011;35163;48.878;18.040;2024-03-06T12:54:22;24.30;;;12.13;;
49296;SDS011;35163;48.878;18.040;2024-03-06T12:56:49;21.67;;;12.23;;
49296;SDS011;35163;48.878;18.040;2024-03-06T12:59:16;23.90;;;12.70;;
49296;SDS011;35163;48.878;18.040;2024-03-06T13:01:42;22.85;;;12.05;;
49296;SDS011;35163;48.878;18.040;2024-03-06T13:04:09;24.17;;;11.98;;
49296;SDS011;35163;48.878;18.040;2024-03-06T13:06:38;24.90;;;11.95;;
49296;SDS011;35163;48.878;18.040;2024-03-06T13:09:06;29.05;;;12.55;;
49296;SDS011;35163;48.878;18.040;2024-03-06T13:11:33;22.73;;;11.95;;
49296;SDS011;35163;48.878;18.040;2024-03-06T13:14:00;23.20;;;12.38;;
49296;SDS011;35163;48.878;18.040;2024-03-06T13:16:27;23.85;;;11.82;;
49296;SDS011;35163;48.878;18.040;2024-03-06T13:18:54;25.73;;;12.43;;
49296;SDS011;35163;48.878;18.040;2024-03-06T13:21:23;24.42;;;12.48;;
49296;SDS011;35163;48.878;18.040;2024-03-06T13:23:49;25.35;;;13.68;;
49296;SDS011;35163;48.878;18.040;2024-03-06T13:26:16;29.33;;;14.45;;
49296;SDS011;35163;48.878;18.040;2024-03-06T13:28:44;24.67;;;13.35;;
49296;SDS011;35163;48.878;18.040;2024-03-06T13:31:12;26.60;;;14.02;;
49296;SDS011;35163;48.878;18.040;2024-03-06T13:33:39;26.70;;;13.90;;
49296;SDS011;35163;48.878;18.040;2024-03-06T13:36:06;26.27;;;14.52;;
49296;SDS011;35163;48.878;18.040;2024-03-06T13:38:34;28.00;;;15.07;;
49296;SDS011;35163;48.878;18.040;2024-03-06T13:41:01;30.30;;;13.63;;
49296;SDS011;35163;48.878;18.040;2024-03-06T13:43:29;28.75;;;13.68;;
49296;SDS011;35163;48.878;18.040;2024-03-06T13:45:55;27.02;;;13.73;;
49296;SDS011;35163;48.878;18.040;2024-03-06T13:48:22;29.27;;;15.02;;
49296;SDS011;35163;48.878;18.040;2024-03-06T13:50:49;25.38;;;13.48;;
49296;SDS011;35163;48.878;18.040;2024-03-06T13:53:15;26.95;;;13.15;;
49296;SDS011;35163;48.878;18.040;2024-03-06T13:55:42;28.52;;;13.65;;
49296;SDS011;35163;48.878;18.040;2024-03-06T13:58:09;26.60;;;12.63;;
49296;SDS011;35163;48.878;18.040;2024-03-06T14:00:35;24.15;;;13.30;;
49296;SDS011;35163;48.878;18.040;2024-03-06T14:03:02;27.77;;;12.82;;
49296;SDS011;35163;48.878;18.040;2024-03-06T14:05:29;23.42;;;12.52;;
49296;SDS011;35163;48.878;18.040;2024-03-06T14:07:56;27.85;;;14.00;;
49296;SDS011;35163;48.878;18.040;2024-03-06T14:10:23;26.50;;;13.93;;
49296;SDS011;35163;48.878;18.040;2024-03-06T14:12:50;22.13;;;12.48;;
49296;SDS011;35163;48.878;18.040;2024-03-06T14:15:18;25.13;;;14.00;;
49296;SDS011;35163;48.878;18.040;2024-03-06T14:17:45;27.83;;;14.55;;
49296;SDS011;35163;48.878;18.040;2024-03-06T14:20:13;23.98;;;13.55;;
49296;SDS011;35163;48.878;18.040;2024-03-06T14:22:40;26.40;;;13.85;;
49296;SDS011;35163;48.878;18.040;2024-03-06T14:25:07;25.90;;;13.77;;
49296;SDS011;35163;48.878;18.040;2024-03-06T14:27:34;26.10;;;14.30;;
49296;SDS011;35163;48.878;18.040;2024-03-06T14:30:03;30.13;;;13.10;;
49296;SDS011;35163;48.878;18.040;2024-03-06T14:32:30;27.17;;;13.77;;
49296;SDS011;35163;48.878;18.040;2024-03-06T14:34:57;25.92;;;14.32;;
49296;SDS011;35163;48.878;18.040;2024-03-06T14:37:24;27.77;;;14.52;;